Terminal Aerodrome Forecast
Issued by NWS

Home | Current Version | Previous Version | Text Only | Print | Product List | Glossary On
Versions: 1 2 3 4 5 6 7 8 9 10 11 12 13 14 15 16 17 18 19 20 21
000
FTUS43 KFGF 181928 AAA
TAFBJI
TAF AMD
KBJI 181928Z 1819/1918 21008KT 1SM -SN OVC015
     FM182100 22008KT 5SM -SN OVC020
     FM182200 23009KT P6SM OVC030
      TEMPO 1822/1823 1SM -SN OVC015
     FM182300 25009KT P6SM OVC030
      TEMPO 1823/1824 2SM -SN OVC015
     FM190300 28009KT P6SM OVC020
     FM190500 28010KT P6SM BKN035
     FM191100 29011G20KT P6SM FEW045
     FM191700 29014G24KT P6SM BKN020=

USA.gov is the U.S. government's official web portal to all federal, state and local government web resources and services.